Página principal
METAR-TAF:

METAR-TAF

Aeroportos :

Aeroporto de Gran Canária

Gran Canária, Espanha

latitude: 27-56N, longitude: 015-23W, altura: 23 m

Observação actual do tempo

O boletim foi feito há 20 minutos, às 11:30 UTC
Vento 25 kt de nor-nordeste
Temperatura 26°C
Humidade 58%
Pressão 1015 hPa
Visibilidade 10 km ou mais
Poucas nuvensa uma altura de 2500 ft

METAR: GCLP 191130Z 02025KT 9999 FEW025 26/17 Q1015 NOSIG

Hora: 12:50 (11:50 UTC)

Previsão

O boletim foi feito há 3 horas e 50 minutos, às 08:00 UTC
Previsão válida de 19 às 09 UTC a 20 às 09 UTC
Vento 25 kt de nor-nordeste
Visibilidade 10 km ou mais
Poucas nuvensa uma altura de 3000 ft
Probabilidade 30%
de 19 às 09 UTC a 19 às 10 UTC
Vento 15 kt de norte
Probabilidade 30% :
Temporariamente
de 19 às 10 UTC a 19 às 16 UTC
Vento 22 kt de norte com rajadas de 32 kt

TAF: GCLP 190800Z 1909/2009 02025KT 9999 FEW030 TX27/1914Z TN22/2006Z PROB30 1909/1910 35015KT PROB30 TEMPO 1910/1916 01022G32KT

Observações e previsões do tempo de mais de 4000 aeroportos (mensagens METAR e TAF).

As estações disponíveis são os pontos amarelos e vermelhos sobre o mapa.

Mova o rato sobre o mapa para ver o nome da estação.

Depois clique no ponto para visualizar as observações e previsões meteorológicas.

Para alterar o mapa : clique nos botões verdes com uma cruz preta para aumentar o zoom; no botão verde com uma pitada de zoom; ou nas setas verdes para mapas adjacentes.


METAR-TAF: